createdAt,value
2022-09-11T00:04:58.912Z,-58
2022-09-11T00:35:02.789Z,-57
2022-09-11T01:05:20.437Z,-58
2022-09-11T01:35:26.835Z,-58
2022-09-11T02:05:28.932Z,-58
2022-09-11T02:35:33.989Z,-58
2022-09-11T03:05:37.826Z,-56
2022-09-11T03:35:44.410Z,-58
2022-09-11T04:05:49.905Z,-58
2022-09-11T04:36:00.383Z,-58
2022-09-11T05:06:08.783Z,-58
2022-09-11T05:36:20.343Z,-58
2022-09-11T06:06:30.871Z,-58
2022-09-11T06:37:23.527Z,-59
2022-09-11T06:38:35.841Z,-58
2022-09-11T06:39:56.312Z,-58
2022-09-11T06:41:19.917Z,-59
2022-09-11T06:42:39.406Z,-59
2022-09-11T07:16:16.137Z,-60
2022-09-11T07:18:50.888Z,-59
2022-09-11T07:22:27.425Z,-60
2022-09-11T07:22:39.879Z,-59
2022-09-11T07:54:30.750Z,-59
2022-09-11T08:24:40.575Z,-61
2022-09-11T08:54:41.823Z,-60
2022-09-11T09:24:45.888Z,-64
2022-09-11T09:54:51.481Z,-65
2022-09-11T10:25:00.357Z,-69
2022-09-11T10:55:01.369Z,-68
2022-09-11T11:25:18.377Z,-64
2022-09-11T11:55:31.458Z,-64
2022-09-11T12:25:38.856Z,-67
2022-09-11T12:55:43.383Z,-67
2022-09-11T13:25:54.736Z,-63
2022-09-11T13:56:02.850Z,-66
2022-09-11T14:26:04.981Z,-66
2022-09-11T14:56:06.872Z,-64
2022-09-11T15:26:14.667Z,-66
2022-09-11T15:56:16.760Z,-66
2022-09-11T16:26:22.997Z,-66
2022-09-11T16:56:32.377Z,-65
2022-09-11T17:26:39.044Z,-66
2022-09-11T17:56:56.332Z,-65
2022-09-11T18:26:57.900Z,-63
2022-09-11T18:57:05.397Z,-64
2022-09-11T19:27:13.916Z,-63
2022-09-11T19:57:17.942Z,-62
2022-09-11T20:27:22.868Z,-63
2022-09-11T20:57:29.396Z,-62
2022-09-11T21:27:32.898Z,-61
2022-09-11T21:57:40.209Z,-61
2022-09-11T22:27:48.784Z,-60
2022-09-11T22:58:00.759Z,-61
2022-09-11T23:28:16.379Z,-60
2022-09-11T23:58:21.901Z,-60
